Time;durP1;ratioP1;P1;durP2;ratioP2;P2;SDS_P1;SDS_P2;PMS_P1;PMS_P2;Temp;Humidity;BMP_temperature;BMP_pressure;BME280_temperature;BME280_humidity;BME280_pressure;Samples;Min_cycle;Max_cycle;Signal;HPM_P1;HPM_P2
2022/11/08 00:01:39;;;;;;;9.37;3.07;;;13.40;99.90;;;;;;5051050;28;20648;-78
2022/11/08 00:04:08;;;;;;;10.60;2.60;;;13.40;99.90;;;;;;5052433;28;20194;-78
2022/11/08 00:14:51;;;;;;;9.23;2.83;;;13.20;99.90;;;;;;5048516;28;20291;-83
2022/11/08 00:17:20;;;;;;;8.50;2.83;;;13.20;99.90;;;;;;5052244;28;20259;-81
2022/11/08 00:19:47;;;;;;;15.37;3.57;;;13.20;99.90;;;;;;5052342;28;20840;-78
2022/11/08 00:22:15;;;;;;;8.67;3.40;;;13.10;99.90;;;;;;5048717;28;20284;-78
2022/11/08 00:24:42;;;;;;;12.97;3.17;;;13.10;99.90;;;;;;5052072;28;20626;-79
2022/11/08 00:27:13;;;;;;;10.13;2.93;;;13.10;99.90;;;;;;5052353;28;20244;-77
2022/11/08 00:29:40;;;;;;;9.90;2.97;;;13.10;99.90;;;;;;5050707;28;20202;-78
2022/11/08 00:32:10;;;;;;;9.90;2.80;;;13.10;99.90;;;;;;5048809;28;20320;-78
2022/11/08 00:34:37;;;;;;;8.30;2.63;;;13.00;99.90;;;;;;5052092;28;20639;-83
2022/11/08 00:37:04;;;;;;;8.73;2.83;;;13.00;99.90;;;;;;5050649;28;20218;-80
2022/11/08 00:39:32;;;;;;;12.67;3.67;;;13.00;99.90;;;;;;5052202;28;20552;-80
2022/11/08 00:41:59;;;;;;;11.73;3.47;;;13.00;99.90;;;;;;5050752;28;20649;-79
2022/11/08 00:44:27;;;;;;;7.47;3.00;;;12.90;99.90;;;;;;5052244;28;20194;-79
2022/11/08 00:46:54;;;;;;;10.70;2.87;;;12.90;99.90;;;;;;5045491;28;20293;-78
2022/11/08 00:49:21;;;;;;;5.57;2.70;;;12.90;99.90;;;;;;5032242;28;20187;-87
2022/11/08 00:51:48;;;;;;;17.80;3.80;;;12.90;99.90;;;;;;5033829;28;20547;-85
2022/11/08 00:54:17;;;;;;;8.43;3.17;;;12.90;99.90;;;;;;5036843;28;20258;-86
2022/11/08 00:56:45;;;;;;;11.73;3.37;;;12.80;99.90;;;;;;5038591;28;20206;-87
2022/11/08 00:59:12;;;;;;;10.50;3.00;;;12.80;99.90;;;;;;5037833;28;20277;-87
2022/11/08 01:01:42;;;;;;;9.53;2.73;;;12.80;99.90;;;;;;5037816;28;20600;-86
2022/11/08 01:04:11;;;;;;;10.27;3.27;;;12.70;99.90;;;;;;5050652;28;20237;-79
2022/11/08 01:06:39;;;;;;;13.67;3.10;;;12.70;99.90;;;;;;5057718;28;20287;-86
2022/11/08 01:09:06;;;;;;;6.57;2.43;;;12.80;99.90;;;;;;5056554;28;20607;-86
2022/11/08 01:11:33;;;;;;;9.30;2.43;;;12.70;99.90;;;;;;5057714;28;20233;-88
2022/11/08 01:14:01;;;;;;;8.43;3.10;;;12.70;99.90;;;;;;5055203;28;20528;-88
2022/11/08 01:16:30;;;;;;;7.93;2.77;;;12.70;99.90;;;;;;5057383;28;20498;-85
2022/11/08 01:19:00;;;;;;;9.27;3.07;;;12.70;99.90;;;;;;5056404;28;20201;-85
2022/11/08 01:21:27;;;;;;;10.67;3.00;;;12.70;99.90;;;;;;5037160;28;20202;-87
2022/11/08 01:23:55;;;;;;;9.73;3.40;;;12.60;99.90;;;;;;5037671;28;20195;-87
2022/11/08 01:26:23;;;;;;;9.10;2.50;;;12.60;99.90;;;;;;5037497;28;20277;-88
2022/11/08 01:28:50;;;;;;;8.90;2.53;;;12.60;99.90;;;;;;5037968;28;20225;-86
2022/11/08 01:31:19;;;;;;;6.40;2.70;;;12.60;99.90;;;;;;5036874;28;20674;-86
2022/11/08 01:33:46;;;;;;;8.30;2.80;;;12.50;99.90;;;;;;5048646;28;20630;-87
2022/11/08 01:36:17;;;;;;;12.47;3.00;;;12.50;99.90;;;;;;5057039;28;20206;-85
2022/11/08 01:38:44;;;;;;;7.37;2.87;;;12.50;99.90;;;;;;5050770;28;20505;-86
2022/11/08 01:41:13;;;;;;;5.13;2.33;;;12.50;99.90;;;;;;5036847;28;20202;-82
2022/11/08 01:43:42;;;;;;;10.93;3.37;;;12.50;99.90;;;;;;5042371;28;20202;-86
2022/11/08 01:46:40;;;;;;;5.83;2.50;;;12.50;99.90;;;;;;5053964;28;20267;-79
2022/11/08 01:49:37;;;;;;;6.90;2.40;;;12.50;99.90;;;;;;5033414;28;20202;-82
2022/11/08 01:52:20;;;;;;;9.60;3.20;;;12.40;99.90;;;;;;5021845;28;20221;-82
2022/11/08 01:54:54;;;;;;;11.77;2.70;;;12.40;99.90;;;;;;5035956;28;20218;-87
2022/11/08 01:57:25;;;;;;;11.80;2.73;;;12.40;99.90;;;;;;5036343;28;20195;-79
2022/11/08 01:59:55;;;;;;;9.33;3.07;;;12.40;99.90;;;;;;5033863;28;20199;-77
2022/11/08 02:02:22;;;;;;;5.77;2.40;;;12.40;99.90;;;;;;5034697;28;20199;-88
2022/11/08 02:04:49;;;;;;;9.43;2.60;;;12.40;99.90;;;;;;5038710;28;20194;-77
2022/11/08 02:07:18;;;;;;;12.33;2.90;;;12.30;99.90;;;;;;5055013;28;20198;-78
2022/11/08 02:09:47;;;;;;;8.73;2.70;;;12.30;99.90;;;;;;5055070;28;20194;-85
2022/11/08 02:12:15;;;;;;;8.00;2.93;;;12.30;99.90;;;;;;5053578;28;20208;-77
2022/11/08 02:14:42;;;;;;;15.00;2.90;;;12.30;99.90;;;;;;5053574;28;20545;-85
2022/11/08 02:17:09;;;;;;;8.93;2.57;;;12.30;99.90;;;;;;5054383;28;20224;-79
2022/11/08 02:19:40;;;;;;;9.33;2.87;;;12.20;99.90;;;;;;5050901;28;20194;-79
2022/11/08 02:22:22;;;;;;;9.50;2.87;;;12.20;99.90;;;;;;5054188;28;20617;-87
2022/11/08 02:24:51;;;;;;;10.00;3.60;;;12.20;99.90;;;;;;5056734;28;20270;-86
2022/11/08 02:27:18;;;;;;;10.33;3.37;;;12.10;99.90;;;;;;5052946;28;20610;-83
2022/11/08 02:29:45;;;;;;;12.07;3.50;;;12.10;99.90;;;;;;5055780;28;20198;-85
2022/11/08 02:32:12;;;;;;;13.20;3.60;;;12.10;99.90;;;;;;5056251;28;20200;-85
2022/11/08 02:34:44;;;;;;;11.73;3.20;;;12.10;99.90;;;;;;5053232;28;20225;-86
2022/11/08 02:37:13;;;;;;;8.43;3.17;;;12.00;99.90;;;;;;5035801;28;20602;-84
2022/11/08 02:39:40;;;;;;;8.03;3.13;;;12.10;99.90;;;;;;5035992;28;20695;-85
2022/11/08 02:42:12;;;;;;;10.93;3.33;;;12.00;99.90;;;;;;5035811;28;20207;-86
2022/11/08 02:44:39;;;;;;;14.27;3.30;;;12.00;99.90;;;;;;5035872;28;20191;-85
2022/11/08 02:47:06;;;;;;;11.27;3.70;;;12.00;99.90;;;;;;5055791;28;20213;-86
2022/11/08 02:49:33;;;;;;;5.90;2.77;;;11.90;99.90;;;;;;5055442;28;20586;-87
2022/11/08 02:52:00;;;;;;;12.33;3.97;;;11.90;99.90;;;;;;5054297;28;20308;-89
2022/11/08 02:54:27;;;;;;;9.33;3.33;;;11.90;99.90;;;;;;5035335;28;20240;-84
2022/11/08 02:56:54;;;;;;;8.97;3.80;;;11.90;99.90;;;;;;5035108;28;20203;-87
2022/11/08 02:59:22;;;;;;;10.60;3.47;;;11.90;99.90;;;;;;5035394;28;20892;-85
2022/11/08 03:01:49;;;;;;;9.73;2.93;;;11.80;99.90;;;;;;5040088;28;20293;-83
2022/11/08 03:04:15;;;;;;;8.03;3.23;;;11.90;99.90;;;;;;5055006;28;20190;-87
2022/11/08 03:06:42;;;;;;;6.87;3.03;;;11.80;99.90;;;;;;5055512;28;20292;-86
2022/11/08 03:09:09;;;;;;;10.60;3.27;;;11.80;99.90;;;;;;5055095;28;20194;-90
2022/11/08 03:11:36;;;;;;;10.90;3.23;;;11.80;99.90;;;;;;5036876;28;20216;-82
2022/11/08 03:14:03;;;;;;;11.13;3.50;;;11.70;99.90;;;;;;5034786;28;20645;-88
2022/11/08 03:16:32;;;;;;;7.40;3.00;;;11.80;99.90;;;;;;5035244;28;20250;-86
2022/11/08 03:18:58;;;;;;;10.03;3.43;;;11.70;99.90;;;;;;5034847;28;20208;-84
2022/11/08 03:21:25;;;;;;;10.50;3.40;;;11.70;99.90;;;;;;5034672;28;20308;-87
2022/11/08 03:23:52;;;;;;;10.80;3.33;;;11.70;99.90;;;;;;5054827;28;20202;-87
2022/11/08 03:26:19;;;;;;;8.00;3.00;;;11.70;99.90;;;;;;5055056;28;20205;-87
2022/11/08 03:28:46;;;;;;;11.83;4.00;;;11.70;99.90;;;;;;5040868;28;20245;-87
2022/11/08 03:31:13;;;;;;;11.10;3.73;;;11.70;99.90;;;;;;5034667;28;20194;-85
2022/11/08 03:33:41;;;;;;;13.67;3.60;;;11.70;99.90;;;;;;5034661;28;20232;-87
2022/11/08 03:36:09;;;;;;;7.83;3.27;;;11.60;99.90;;;;;;5034973;28;20210;-85
2022/11/08 03:38:36;;;;;;;9.37;3.50;;;11.60;99.90;;;;;;5034861;28;20289;-89
2022/11/08 03:41:02;;;;;;;10.73;3.77;;;11.60;99.90;;;;;;5035046;28;20201;-88
2022/11/08 03:43:29;;;;;;;7.87;3.13;;;11.60;99.90;;;;;;5042040;28;20213;-84
2022/11/08 03:45:56;;;;;;;8.17;3.60;;;11.60;99.90;;;;;;5054414;28;20222;-85
2022/11/08 03:48:23;;;;;;;8.90;3.27;;;11.60;99.90;;;;;;5044732;28;20285;-86
2022/11/08 03:50:52;;;;;;;14.70;3.60;;;11.60;99.90;;;;;;5033940;28;20239;-83
2022/11/08 03:53:18;;;;;;;10.97;4.17;;;11.60;99.90;;;;;;5032153;28;20611;-88
2022/11/08 03:55:45;;;;;;;10.00;3.80;;;11.60;99.90;;;;;;5034409;28;20201;-89
2022/11/08 03:58:12;;;;;;;10.97;3.50;;;11.50;99.90;;;;;;5034411;28;20203;-86
2022/11/08 04:00:39;;;;;;;9.60;3.50;;;11.50;99.90;;;;;;5033716;28;20210;-86
2022/11/08 04:03:06;;;;;;;10.73;4.00;;;11.50;99.90;;;;;;5034469;28;20202;-87
2022/11/08 04:05:33;;;;;;;9.13;3.33;;;11.50;99.90;;;;;;5034387;28;20203;-86
2022/11/08 04:08:01;;;;;;;10.80;3.80;;;11.50;99.90;;;;;;5034443;28;20333;-87
2022/11/08 04:10:28;;;;;;;7.57;3.90;;;11.50;99.90;;;;;;5033984;28;20206;-80
2022/11/08 04:15:42;;;;;;;14.17;4.53;;;11.50;99.90;;;;;;5034342;28;20245;-86
2022/11/08 04:23:54;;;;;;;10.27;4.20;;;11.50;99.90;;;;;;4954488;28;20198;-88
2022/11/08 04:26:22;;;;;;;6.80;3.17;;;11.50;99.90;;;;;;4954504;29;20216;-87
2022/11/08 04:28:49;;;;;;;7.00;3.40;;;11.50;99.90;;;;;;4992208;28;20213;-87
2022/11/08 04:31:17;;;;;;;10.00;3.80;;;11.50;99.90;;;;;;5038843;28;20210;-88
2022/11/08 04:33:44;;;;;;;8.47;3.67;;;11.40;99.90;;;;;;5038216;28;20273;-90
2022/11/08 04:36:13;;;;;;;11.47;3.87;;;11.50;99.90;;;;;;5037929;28;20202;-88
2022/11/08 04:38:40;;;;;;;8.23;3.63;;;11.50;99.90;;;;;;5038278;28;21141;-84
2022/11/08 04:41:11;;;;;;;9.30;3.70;;;11.50;99.90;;;;;;5051852;28;20767;-86
2022/11/08 04:43:38;;;;;;;8.70;3.20;;;11.40;99.90;;;;;;5058408;28;20206;-85
2022/11/08 04:46:07;;;;;;;9.70;4.03;;;11.50;99.90;;;;;;5042830;28;20297;-85
2022/11/08 04:48:34;;;;;;;7.93;3.33;;;11.40;99.90;;;;;;5057240;28;20206;-88
2022/11/08 04:51:05;;;;;;;10.33;3.87;;;11.40;99.90;;;;;;5054643;28;20225;-86
2022/11/08 04:53:32;;;;;;;9.67;3.73;;;11.40;99.90;;;;;;5058067;28;20284;-88
2022/11/08 04:56:03;;;;;;;8.77;3.47;;;11.50;99.90;;;;;;5057106;28;20314;-84
2022/11/08 04:58:35;;;;;;;9.13;3.50;;;11.50;99.90;;;;;;5056165;28;20216;-85
2022/11/08 05:01:03;;;;;;;7.40;3.67;;;11.40;99.90;;;;;;5057534;28;20201;-86
2022/11/08 05:03:30;;;;;;;11.90;3.57;;;11.40;99.90;;;;;;5057288;28;20602;-88
2022/11/08 05:06:01;;;;;;;8.67;3.53;;;11.40;99.90;;;;;;5057587;28;20193;-86
2022/11/08 05:08:28;;;;;;;8.27;3.60;;;11.50;99.90;;;;;;5057698;28;20202;-86
2022/11/08 05:11:00;;;;;;;8.33;3.17;;;11.40;99.90;;;;;;5057436;28;20728;-88
2022/11/08 05:13:27;;;;;;;4.60;2.70;;;11.40;99.90;;;;;;5057547;28;20194;-86
2022/11/08 05:16:00;;;;;;;6.93;3.80;;;11.50;99.90;;;;;;5057103;28;20241;-87
2022/11/08 05:18:28;;;;;;;7.27;2.83;;;11.40;99.90;;;;;;5057373;28;20194;-86
2022/11/08 05:23:40;;;;;;;9.17;3.80;;;11.40;99.90;;;;;;5035945;28;20317;-88
2022/11/08 05:26:07;;;;;;;8.43;3.30;;;11.40;99.90;;;;;;5037518;28;20195;-86
2022/11/08 05:28:34;;;;;;;10.60;3.60;;;11.40;99.90;;;;;;5043427;28;20209;-86
2022/11/08 05:31:02;;;;;;;7.00;3.40;;;11.40;99.90;;;;;;5056855;28;20316;-81
2022/11/08 05:33:29;;;;;;;7.63;3.23;;;11.40;99.90;;;;;;5056584;28;20198;-87
2022/11/08 05:35:56;;;;;;;8.90;2.90;;;11.40;99.90;;;;;;5045409;28;20310;-82
2022/11/08 05:38:23;;;;;;;9.27;3.73;;;11.40;99.90;;;;;;5036577;28;20202;-86
2022/11/08 05:40:50;;;;;;;7.93;2.97;;;11.40;99.90;;;;;;5036774;28;20317;-87
2022/11/08 05:43:17;;;;;;;10.67;3.03;;;11.40;99.90;;;;;;5036782;28;20213;-86
2022/11/08 05:45:45;;;;;;;8.00;2.90;;;11.40;99.90;;;;;;5040232;28;20212;-84
2022/11/08 05:48:13;;;;;;;6.00;3.10;;;11.40;99.90;;;;;;5057177;28;20198;-86
2022/11/08 05:50:40;;;;;;;6.63;3.57;;;11.40;99.90;;;;;;5056635;28;20243;-84
2022/11/08 05:53:07;;;;;;;6.30;3.17;;;11.40;99.90;;;;;;5057021;28;20194;-86
2022/11/08 05:55:34;;;;;;;7.87;3.33;;;11.40;99.90;;;;;;5055753;28;20399;-86
2022/11/08 05:58:01;;;;;;;5.90;2.63;;;11.50;99.90;;;;;;5056705;28;20205;-90
2022/11/08 06:00:28;;;;;;;6.03;2.60;;;11.50;99.90;;;;;;5056884;28;20280;-86
2022/11/08 06:02:54;;;;;;;7.37;3.07;;;11.40;99.90;;;;;;5056670;28;20293;-85
2022/11/08 06:05:23;;;;;;;4.77;2.60;;;11.40;99.90;;;;;;5055805;28;20214;-86
2022/11/08 06:07:49;;;;;;;10.87;3.90;;;11.50;99.90;;;;;;5056683;28;20288;-86
2022/11/08 06:10:16;;;;;;;15.93;4.97;;;11.40;99.90;;;;;;5056470;28;20204;-85
2022/11/08 06:12:43;;;;;;;11.30;3.53;;;11.40;99.90;;;;;;5049509;28;20201;-87
2022/11/08 06:15:10;;;;;;;5.13;3.13;;;11.40;99.90;;;;;;5056390;28;20752;-83
2022/11/08 06:17:37;;;;;;;8.63;3.30;;;11.40;99.90;;;;;;5055935;28;20204;-87
2022/11/08 06:20:06;;;;;;;6.33;3.07;;;11.40;99.90;;;;;;5056002;28;20202;-80
2022/11/08 06:22:34;;;;;;;7.97;3.23;;;11.40;99.90;;;;;;5056076;28;20194;-86
2022/11/08 06:25:01;;;;;;;8.27;3.17;;;11.40;99.90;;;;;;5039176;28;20296;-88
2022/11/08 06:27:28;;;;;;;4.90;2.83;;;11.40;99.90;;;;;;5036024;28;20210;-78
2022/11/08 06:29:55;;;;;;;6.53;3.40;;;11.40;99.90;;;;;;5035473;28;20195;-85
2022/11/08 06:32:22;;;;;;;9.83;2.97;;;11.30;99.90;;;;;;5035772;28;20501;-86
2022/11/08 06:34:49;;;;;;;6.90;2.93;;;11.30;99.90;;;;;;5057810;28;20230;-86
2022/11/08 06:37:16;;;;;;;5.30;2.73;;;11.30;99.90;;;;;;5060876;28;20471;-76
2022/11/08 06:39:44;;;;;;;8.13;3.20;;;11.40;99.90;;;;;;5043232;28;20202;-80
2022/11/08 06:42:11;;;;;;;5.53;3.13;;;11.30;99.90;;;;;;5034689;28;20210;-76
2022/11/08 06:44:38;;;;;;;5.63;2.90;;;11.30;99.90;;;;;;5043210;28;20214;-76
2022/11/08 06:47:05;;;;;;;6.47;3.50;;;11.40;99.90;;;;;;5053392;28;20208;-77
2022/11/08 06:49:32;;;;;;;5.40;3.70;;;11.30;99.90;;;;;;5053826;28;20206;-76
2022/11/08 06:51:59;;;;;;;9.03;3.23;;;11.30;99.90;;;;;;5037104;28;20604;-77
2022/11/08 06:54:26;;;;;;;4.77;2.87;;;11.30;99.90;;;;;;5033031;28;20314;-78
2022/11/08 06:56:59;;;;;;;6.43;3.20;;;11.30;99.90;;;;;;5034038;28;20595;-83
2022/11/08 06:59:25;;;;;;;6.77;3.37;;;11.30;99.90;;;;;;5035320;28;20607;-86
2022/11/08 07:01:52;;;;;;;11.07;2.80;;;11.30;99.90;;;;;;5033383;28;20202;-77
2022/11/08 07:04:19;;;;;;;8.23;2.80;;;11.40;99.90;;;;;;5040438;28;20666;-76
2022/11/08 07:06:46;;;;;;;7.10;2.90;;;11.30;99.90;;;;;;5053041;28;20205;-76
2022/11/08 07:09:13;;;;;;;8.80;3.17;;;11.30;99.90;;;;;;5050805;28;20518;-76
2022/11/08 07:11:40;;;;;;;6.83;2.83;;;11.40;99.90;;;;;;5055286;28;20198;-84
2022/11/08 07:14:08;;;;;;;4.77;2.50;;;11.40;99.90;;;;;;5055363;28;20202;-87
2022/11/08 07:16:35;;;;;;;6.10;2.60;;;11.40;99.90;;;;;;5052583;28;20224;-88
2022/11/08 07:19:02;;;;;;;5.97;3.10;;;11.40;99.90;;;;;;5053962;28;20486;-80
2022/11/08 07:21:28;;;;;;;4.47;2.60;;;11.40;99.90;;;;;;5051833;28;20201;-82
2022/11/08 07:23:55;;;;;;;5.20;2.47;;;11.40;99.90;;;;;;5052531;28;20202;-76
2022/11/08 07:26:22;;;;;;;4.13;2.50;;;11.40;99.90;;;;;;5053270;28;20305;-77
2022/11/08 07:28:49;;;;;;;4.43;2.60;;;11.40;99.90;;;;;;5053173;28;20198;-78
2022/11/08 07:31:17;;;;;;;6.80;2.63;;;11.40;99.90;;;;;;5049045;28;20201;-79
2022/11/08 07:33:44;;;;;;;9.57;3.03;;;11.40;99.90;;;;;;5052856;28;20198;-79
2022/11/08 07:36:11;;;;;;;7.17;2.53;;;11.40;99.90;;;;;;5052407;28;20779;-77
2022/11/08 07:38:38;;;;;;;4.53;2.27;;;11.50;99.90;;;;;;5050878;28;20315;-78
2022/11/08 07:41:05;;;;;;;4.03;2.40;;;11.50;99.90;;;;;;5051982;28;20198;-79
2022/11/08 07:43:32;;;;;;;5.00;2.73;;;11.50;99.90;;;;;;5052954;28;20202;-78
2022/11/08 07:46:00;;;;;;;8.47;2.70;;;11.50;99.90;;;;;;5045774;28;20203;-76
2022/11/08 07:48:30;;;;;;;3.90;2.30;;;11.50;99.90;;;;;;5033155;28;20285;-76
2022/11/08 07:50:57;;;;;;;5.00;2.90;;;11.60;99.90;;;;;;5032120;28;20245;-77
2022/11/08 07:53:24;;;;;;;5.63;3.00;;;11.60;99.90;;;;;;5034566;28;20208;-79
2022/11/08 07:55:52;;;;;;;6.30;2.73;;;11.60;99.90;;;;;;5042638;28;20259;-75
2022/11/08 07:58:18;;;;;;;3.83;2.40;;;11.60;99.90;;;;;;5038428;28;20206;-82
2022/11/08 08:00:48;;;;;;;5.77;2.43;;;11.70;99.90;;;;;;5035978;28;20600;-77
2022/11/08 08:03:16;;;;;;;4.70;2.53;;;11.60;99.90;;;;;;5044226;28;20601;-76
2022/11/08 08:05:50;;;;;;;5.63;2.30;;;11.70;99.90;;;;;;5039333;28;20209;-78
2022/11/08 08:08:17;;;;;;;4.53;2.10;;;11.70;99.90;;;;;;5033251;28;20214;-78
2022/11/08 08:10:44;;;;;;;5.20;2.23;;;11.70;99.90;;;;;;5050242;28;20208;-78
2022/11/08 08:13:11;;;;;;;5.73;2.10;;;11.70;99.90;;;;;;5040042;28;20391;-79
2022/11/08 08:15:38;;;;;;;3.50;2.07;;;11.80;99.90;;;;;;5031889;28;20230;-79
2022/11/08 08:18:06;;;;;;;6.13;2.43;;;11.80;99.90;;;;;;5038832;28;20208;-77
2022/11/08 08:20:35;;;;;;;5.03;2.43;;;11.90;99.90;;;;;;5051150;28;20613;-77
2022/11/08 08:23:03;;;;;;;5.53;2.73;;;11.90;99.90;;;;;;5047100;28;20205;-79
2022/11/08 08:25:30;;;;;;;4.47;2.37;;;11.90;99.90;;;;;;5050489;28;20209;-78
2022/11/08 08:27:59;;;;;;;5.03;2.17;;;11.90;99.90;;;;;;5050198;28;20209;-87
2022/11/08 08:30:27;;;;;;;3.00;2.00;;;11.90;99.90;;;;;;5052042;28;20205;-84
2022/11/08 08:33:02;;;;;;;6.80;2.20;;;11.90;99.90;;;;;;5050828;28;20205;-90
2022/11/08 08:35:29;;;;;;;3.47;2.17;;;12.00;99.90;;;;;;5042835;28;20214;-81
2022/11/08 08:37:58;;;;;;;3.30;2.03;;;12.00;99.90;;;;;;5046250;28;20230;-86
2022/11/08 08:40:27;;;;;;;3.00;2.10;;;12.00;99.90;;;;;;5042570;28;20202;-85
2022/11/08 08:42:54;;;;;;;4.63;1.80;;;12.00;99.90;;;;;;5044414;28;20225;-84
2022/11/08 08:45:21;;;;;;;5.77;2.33;;;12.00;99.90;;;;;;5051016;28;20614;-87
2022/11/08 08:47:52;;;;;;;4.03;2.00;;;12.00;99.90;;;;;;5049193;28;20207;-87
2022/11/08 08:50:19;;;;;;;3.07;1.90;;;12.10;99.90;;;;;;5039989;28;20206;-84
2022/11/08 08:52:45;;;;;;;3.60;2.17;;;12.20;99.90;;;;;;5037618;28;20300;-85
2022/11/08 08:55:12;;;;;;;6.63;2.43;;;12.20;99.90;;;;;;5048156;28;20221;-85
2022/11/08 08:57:43;;;;;;;4.27;2.10;;;12.20;99.90;;;;;;5034990;28;20218;-85
2022/11/08 09:00:11;;;;;;;4.80;2.13;;;12.20;99.90;;;;;;5034857;28;20241;-88
2022/11/08 09:02:38;;;;;;;5.37;2.60;;;12.30;99.90;;;;;;5033987;28;20630;-92
2022/11/08 09:05:05;;;;;;;5.57;2.83;;;12.30;99.90;;;;;;5034364;28;20453;-89
2022/11/08 09:07:32;;;;;;;4.30;2.17;;;12.40;99.90;;;;;;5034278;28;20210;-86
2022/11/08 09:09:59;;;;;;;5.20;2.40;;;12.40;99.90;;;;;;5034826;28;20195;-85
2022/11/08 09:12:26;;;;;;;3.17;2.20;;;12.40;99.90;;;;;;5036061;28;20209;-85
2022/11/08 09:14:55;;;;;;;4.47;2.03;;;12.40;99.90;;;;;;5063140;28;20252;-86
2022/11/08 09:17:22;;;;;;;5.17;2.07;;;12.40;99.90;;;;;;5056078;28;20206;-84
2022/11/08 09:19:49;;;;;;;5.80;2.13;;;12.50;99.90;;;;;;5042110;28;20256;-83
2022/11/08 09:22:16;;;;;;;4.87;2.10;;;12.50;99.90;;;;;;5043767;28;20189;-86
2022/11/08 09:24:43;;;;;;;6.07;2.10;;;12.50;99.90;;;;;;5054128;28;20198;-82
2022/11/08 09:27:10;;;;;;;5.23;2.43;;;12.50;99.90;;;;;;5043444;28;20194;-82
2022/11/08 09:29:37;;;;;;;3.37;1.77;;;12.50;99.90;;;;;;5047607;28;20288;-84
2022/11/08 09:32:05;;;;;;;4.40;2.47;;;12.60;99.90;;;;;;5053394;28;20213;-83
2022/11/08 09:34:32;;;;;;;5.70;2.10;;;12.60;99.90;;;;;;5038016;28;20215;-84
2022/11/08 09:36:58;;;;;;;3.93;1.80;;;12.70;99.90;;;;;;5046503;28;20233;-83
2022/11/08 09:39:25;;;;;;;7.50;2.40;;;12.70;99.90;;;;;;5041402;28;20194;-87
2022/11/08 09:42:10;;;;;;;4.03;1.87;;;12.80;99.90;;;;;;5056408;28;20598;-85
2022/11/08 09:44:58;;;;;;;3.57;1.70;;;12.90;99.90;;;;;;5053072;28;20291;-80
2022/11/08 09:47:30;;;;;;;4.27;2.10;;;13.00;99.90;;;;;;5034665;28;20593;-78
2022/11/08 09:50:04;;;;;;;2.83;1.80;;;13.00;99.90;;;;;;5033945;28;20482;-78
2022/11/08 09:52:33;;;;;;;3.10;1.80;;;13.10;99.90;;;;;;5032962;28;20226;-79
2022/11/08 09:55:13;;;;;;;5.90;2.27;;;13.20;99.90;;;;;;5048059;28;20206;-86
2022/11/08 09:57:50;;;;;;;4.57;1.90;;;13.30;99.90;;;;;;5049997;28;20201;-84
2022/11/08 10:00:18;;;;;;;4.60;2.30;;;13.40;99.90;;;;;;5056011;28;20190;-83
2022/11/08 10:02:46;;;;;;;4.40;2.03;;;13.40;99.90;;;;;;5037901;28;20289;-85
2022/11/08 10:05:16;;;;;;;3.07;1.93;;;13.40;99.90;;;;;;5036129;28;20281;-88
2022/11/08 10:07:49;;;;;;;5.20;1.90;;;13.50;99.90;;;;;;5046773;28;20621;-89
2022/11/08 10:10:54;;;;;;;4.73;2.00;;;13.60;99.90;;;;;;5056970;28;20300;-87
2022/11/08 10:13:29;;;;;;;4.57;2.00;;;13.60;99.90;;;;;;5036153;28;20279;-85
2022/11/08 10:16:04;;;;;;;3.40;2.13;;;13.70;99.90;;;;;;5036524;28;20325;-91
2022/11/08 10:19:09;;;;;;;2.93;2.00;;;13.80;99.90;;;;;;5045489;28;20209;-91
2022/11/08 10:21:53;;;;;;;4.27;1.97;;;13.90;99.90;;;;;;4975717;28;20204;-91
2022/11/08 10:24:31;;;;;;;3.70;1.80;;;13.90;99.90;;;;;;5046996;28;20919;-89
2022/11/08 10:27:00;;;;;;;4.70;2.13;;;14.00;99.90;;;;;;5055217;28;20284;-90
2022/11/08 10:29:32;;;;;;;2.90;1.90;;;14.00;99.90;;;;;;5054609;28;20202;-87
2022/11/08 10:32:03;;;;;;;4.93;2.23;;;14.00;99.90;;;;;;5056291;28;20186;-91
2022/11/08 10:34:39;;;;;;;3.87;1.57;;;14.00;99.90;;;;;;5045869;28;20202;-90
2022/11/08 10:37:09;;;;;;;6.97;2.07;;;14.00;99.90;;;;;;5036438;28;20511;-88
2022/11/08 10:39:42;;;;;;;5.73;2.27;;;14.10;99.90;;;;;;5035712;28;20205;-87
2022/11/08 10:42:15;;;;;;;4.63;1.93;;;14.10;99.90;;;;;;5048600;28;20220;-87
2022/11/08 10:44:42;;;;;;;3.37;2.00;;;14.10;99.90;;;;;;5045458;28;20213;-89
2022/11/08 10:47:16;;;;;;;6.07;2.03;;;14.20;99.90;;;;;;5036100;28;20200;-88
2022/11/08 10:49:47;;;;;;;6.70;2.30;;;14.20;99.90;;;;;;5039157;28;20647;-87
2022/11/08 10:52:19;;;;;;;6.37;2.03;;;14.30;99.90;;;;;;5035782;28;20222;-86
2022/11/08 10:54:49;;;;;;;3.90;1.87;;;14.30;99.90;;;;;;5035512;28;20190;-87
2022/11/08 10:57:19;;;;;;;4.67;1.90;;;14.40;99.90;;;;;;5035398;28;20524;-86
2022/11/08 10:59:46;;;;;;;3.47;1.90;;;14.40;99.90;;;;;;5035191;28;20221;-84
2022/11/08 11:02:23;;;;;;;3.70;1.73;;;14.40;99.90;;;;;;5035313;28;20591;-87
2022/11/08 11:04:52;;;;;;;3.53;1.90;;;14.50;99.90;;;;;;5034907;28;20207;-85
2022/11/08 11:07:29;;;;;;;5.60;1.90;;;14.60;99.90;;;;;;5034745;28;20213;-87
2022/11/08 11:09:56;;;;;;;2.73;1.70;;;14.70;99.90;;;;;;5052553;28;20499;-87
2022/11/08 11:12:23;;;;;;;2.50;1.90;;;14.70;99.90;;;;;;5040179;28;20270;-86
2022/11/08 11:14:57;;;;;;;4.70;1.83;;;14.80;99.90;;;;;;5035005;28;20242;-85
2022/11/08 11:17:30;;;;;;;3.57;1.47;;;14.80;99.90;;;;;;5036652;28;20214;-88
2022/11/08 11:19:59;;;;;;;3.23;1.67;;;14.90;99.90;;;;;;5035642;28;20238;-90
2022/11/08 11:22:30;;;;;;;4.50;1.70;;;14.90;99.90;;;;;;5035131;28;20199;-84
2022/11/08 11:25:06;;;;;;;3.23;1.57;;;14.90;99.90;;;;;;5034750;28;20234;-86
2022/11/08 11:27:36;;;;;;;4.93;1.60;;;14.90;99.90;;;;;;5034142;28;20274;-87
2022/11/08 11:30:27;;;;;;;3.70;1.80;;;14.90;99.90;;;;;;5035634;28;20198;-87
2022/11/08 11:33:22;;;;;;;4.93;1.67;;;14.90;99.90;;;;;;5050165;28;20272;-88
2022/11/08 11:35:55;;;;;;;2.73;1.57;;;15.00;99.90;;;;;;5035452;28;20263;-90
2022/11/08 11:38:31;;;;;;;4.87;1.97;;;15.10;99.90;;;;;;5038842;28;20206;-90
2022/11/08 11:41:04;;;;;;;3.13;1.50;;;15.10;99.90;;;;;;5055582;28;20217;-88
2022/11/08 11:43:37;;;;;;;3.25;1.42;;;15.20;99.90;;;;;;5050994;28;20205;-86
2022/11/08 11:46:13;;;;;;;4.85;1.40;;;15.30;99.90;;;;;;5034984;28;20648;-90
2022/11/08 11:48:44;;;;;;;3.60;1.60;;;15.30;99.90;;;;;;5035930;28;20186;-87
2022/11/08 11:51:13;;;;;;;4.70;1.70;;;15.40;99.90;;;;;;5054266;28;20255;-87
2022/11/08 11:53:41;;;;;;;2.53;1.55;;;15.40;99.90;;;;;;5055118;28;20198;-86
2022/11/08 11:56:31;;;;;;;4.07;2.10;;;15.40;99.90;;;;;;5038845;28;20642;-88
2022/11/08 11:59:27;;;;;;;4.50;1.90;;;15.40;99.90;;;;;;5034303;28;20204;-87
2022/11/08 12:02:27;;;;;;;3.08;1.70;;;15.50;99.90;;;;;;5000637;28;20209;-85
2022/11/08 12:05:14;;;;;;;3.50;1.90;;;15.60;99.90;;;;;;5044141;28;20208;-84
2022/11/08 12:07:49;;;;;;;2.13;1.50;;;15.60;99.90;;;;;;5050064;28;20193;-81
2022/11/08 12:10:24;;;;;;;2.60;1.60;;;15.60;99.90;;;;;;5053204;28;20189;-83
2022/11/08 12:13:00;;;;;;;4.03;1.70;;;15.60;99.90;;;;;;5048052;28;20210;-81
2022/11/08 12:15:32;;;;;;;5.17;1.80;;;15.50;99.90;;;;;;5033237;28;20324;-84
2022/11/08 12:18:13;;;;;;;2.93;1.50;;;15.50;99.90;;;;;;5037508;28;20610;-83
2022/11/08 12:20:49;;;;;;;3.83;1.87;;;15.60;99.90;;;;;;5052620;28;20205;-84
2022/11/08 12:23:51;;;;;;;4.22;1.50;;;15.60;99.90;;;;;;5052559;28;20208;-81
2022/11/08 12:26:26;;;;;;;5.93;2.13;;;15.70;99.90;;;;;;5047732;28;20198;-85
2022/11/08 12:29:23;;;;;;;3.60;1.53;;;15.70;99.90;;;;;;5062644;28;20197;-83
2022/11/08 12:32:07;;;;;;;4.07;1.70;;;15.70;99.90;;;;;;5059827;28;20208;-83
2022/11/08 12:34:44;;;;;;;6.32;1.70;;;15.70;99.90;;;;;;5053373;28;20200;-86
2022/11/08 12:37:17;;;;;;;4.77;2.00;;;15.70;99.90;;;;;;5052507;28;20485;-83
2022/11/08 12:39:47;;;;;;;6.40;2.10;;;15.70;99.90;;;;;;5052364;28;20202;-87
2022/11/08 12:42:33;;;;;;;5.53;2.20;;;15.70;99.90;;;;;;5053997;28;20285;-86
2022/11/08 12:45:21;;;;;;;9.85;2.40;;;15.70;99.90;;;;;;5049827;28;20585;-81
2022/11/08 12:47:55;;;;;;;5.53;1.77;;;15.60;99.90;;;;;;5032861;28;20198;-85
2022/11/08 12:50:28;;;;;;;3.63;1.92;;;15.60;99.90;;;;;;5035023;28;20327;-82
2022/11/08 12:53:26;;;;;;;4.57;1.90;;;15.60;99.90;;;;;;5045004;28;20203;-82
2022/11/08 12:55:56;;;;;;;6.15;1.95;;;15.50;99.90;;;;;;5053531;28;20241;-81
2022/11/08 12:58:33;;;;;;;6.13;1.73;;;15.60;99.90;;;;;;5044048;28;20193;-83
2022/11/08 13:01:06;;;;;;;6.13;2.13;;;15.60;99.90;;;;;;5035591;28;20194;-84
2022/11/08 13:04:04;;;;;;;3.00;1.92;;;15.50;99.90;;;;;;5049525;28;20198;-82
2022/11/08 13:06:38;;;;;;;3.38;1.83;;;15.50;99.90;;;;;;5047124;28;20556;-84
2022/11/08 13:09:16;;;;;;;5.15;1.90;;;15.50;99.90;;;;;;5055570;28;20189;-84
2022/11/08 13:11:51;;;;;;;2.85;1.40;;;15.40;99.90;;;;;;5052025;28;20197;-83
2022/11/08 13:14:20;;;;;;;2.72;1.60;;;15.40;99.90;;;;;;5036703;28;20233;-85
2022/11/08 13:17:14;;;;;;;9.45;2.15;;;15.40;99.90;;;;;;5036838;28;20223;-86
2022/11/08 13:20:03;;;;;;;4.93;1.80;;;15.40;99.90;;;;;;5047259;28;20205;-87
2022/11/08 13:22:58;;;;;;;2.50;1.67;;;15.40;99.90;;;;;;5051267;28;20194;-86